Time,TemperatureF,DewpointF,PressureIn,WindDirection,WindDirectionDegrees,WindSpeedMPH,WindSpeedGustMPH,Humidity,HourlyPrecipIn,Conditions,Clouds,dailyrainin,SoftwareType,DateUTC
2013-01-28 08:20:00,76.3,71.8,30.09,NE,48,8.0,8.0,86,0.00,,,0.04,Wunderground v.1.15,2013-01-28 12:20:00,
2013-01-28 08:30:00,77.0,71.8,30.09,ENE,59,10.0,12.0,84,0.00,,,0.04,Wunderground v.1.15,2013-01-28 12:30:00,
2013-01-28 08:50:00,77.2,71.3,30.10,ENE,69,10.0,10.0,82,0.00,,,0.04,Wunderground v.1.15,2013-01-28 12:50:00,
2013-01-28 09:00:00,77.4,71.5,30.10,NE,52,8.0,8.0,82,0.00,,,0.04,Wunderground v.1.15,2013-01-28 13:00:00,
2013-01-28 09:10:00,77.4,69.2,30.11,ENE,61,9.0,15.0,76,0.00,,,0.04,Wunderground v.1.15,2013-01-28 13:10:00,
2013-01-28 09:20:00,77.4,69.2,30.12,NE,52,9.0,9.0,76,0.00,,,0.04,Wunderground v.1.15,2013-01-28 13:20:00,
2013-01-28 09:30:00,78.8,70.2,30.12,ENE,62,8.0,10.0,75,0.00,,,0.04,Wunderground v.1.15,2013-01-28 13:30:00,
2013-01-28 09:40:00,79.0,71.2,30.12,East,80,7.0,7.0,77,0.00,,,0.04,Wunderground v.1.15,2013-01-28 13:40:00,
2013-01-28 09:50:00,79.8,71.2,30.12,NE,36,9.0,9.0,75,0.00,,,0.04,Wunderground v.1.15,2013-01-28 13:50:00,
2013-01-28 10:00:00,78.5,69.5,30.12,ENE,64,11.0,16.0,74,0.00,,,0.04,Wunderground v.1.15,2013-01-28 14:00:00,
2013-01-28 10:10:00,79.9,69.7,30.13,East,80,12.0,12.0,71,0.00,,,0.04,Wunderground v.1.15,2013-01-28 14:10:00,
2013-01-28 10:20:00,80.5,68.5,30.12,ENE,64,12.0,12.0,67,0.00,,,0.04,Wunderground v.1.15,2013-01-28 14:20:00,
2013-01-28 10:30:00,81.6,69.1,30.12,NE,54,13.0,13.0,66,0.00,,,0.04,Wunderground v.1.15,2013-01-28 14:30:00,
2013-01-28 10:40:00,82.4,69.9,30.12,ENE,65,11.0,12.0,66,0.00,,,0.04,Wunderground v.1.15,2013-01-28 14:40:00,
2013-01-28 10:50:00,83.6,70.1,30.12,ENE,69,11.0,15.0,64,0.00,,,0.04,Wunderground v.1.15,2013-01-28 14:50:00,
2013-01-28 11:00:00,83.0,69.6,30.12,East,90,12.0,12.0,64,0.00,,,0.04,Wunderground v.1.15,2013-01-28 15:00:00,
2013-01-28 11:10:00,83.2,70.2,30.12,ENE,73,12.0,15.0,65,0.00,,,0.04,Wunderground v.1.15,2013-01-28 15:10:00,
2013-01-28 11:20:00,83.4,69.9,30.12,East,82,11.0,11.0,64,0.00,,,0.04,Wunderground v.1.15,2013-01-28 15:20:00,
2013-01-28 11:30:00,81.6,71.7,30.12,NE,44,13.0,13.0,72,0.43,,,0.08,Wunderground v.1.15,2013-01-28 15:30:00,
2013-01-28 11:40:00,78.1,72.2,30.12,NNE,31,7.0,7.0,82,0.05,,,0.08,Wunderground v.1.15,2013-01-28 15:40:00,
2013-01-28 11:50:00,78.3,72.7,30.10,ENE,73,9.0,14.0,83,0.00,,,0.08,Wunderground v.1.15,2013-01-28 15:50:00,
2013-01-28 12:00:00,79.4,72.7,30.10,ENE,59,11.0,11.0,80,0.00,,,0.08,Wunderground v.1.15,2013-01-28 16:00:00,
2013-01-28 12:10:00,81.1,72.4,30.10,East,100,10.0,10.0,75,0.00,,,0.08,Wunderground v.1.15,2013-01-28 16:10:00,
2013-01-28 12:20:00,82.0,71.2,30.09,ENE,72,13.0,13.0,70,0.00,,,0.08,Wunderground v.1.15,2013-01-28 16:20:00,
2013-01-28 12:30:00,83.2,72.4,30.09,East,80,11.0,12.0,70,0.00,,,0.08,Wunderground v.1.15,2013-01-28 16:30:00,
2013-01-28 12:40:00,82.8,70.7,30.09,East,84,13.0,14.0,67,0.00,,,0.08,Wunderground v.1.15,2013-01-28 16:40:00,
2013-01-28 12:50:00,83.4,71.3,30.09,ESE,113,12.0,14.0,67,0.00,,,0.08,Wunderground v.1.15,2013-01-28 16:50:00,
2013-01-28 13:00:00,83.8,72.1,30.09,ESE,116,12.0,14.0,68,0.00,,,0.08,Wunderground v.1.15,2013-01-28 17:00:00,
2013-01-28 13:10:00,83.6,70.6,30.08,ESE,104,12.0,19.0,65,0.00,,,0.08,Wunderground v.1.15,2013-01-28 17:10:00,
2013-01-28 13:20:00,83.4,69.9,30.07,ESE,111,12.0,12.0,64,0.00,,,0.08,Wunderground v.1.15,2013-01-28 17:20:00,
2013-01-28 13:30:00,83.8,70.8,30.07,ENE,68,11.0,11.0,65,0.00,,,0.08,Wunderground v.1.15,2013-01-28 17:30:00,
2013-01-28 13:40:00,82.8,69.8,30.07,ENE,72,12.0,14.0,65,0.00,,,0.08,Wunderground v.1.15,2013-01-28 17:40:00,
2013-01-28 13:50:00,82.0,69.5,30.06,ENE,69,11.0,13.0,66,0.00,,,0.08,Wunderground v.1.15,2013-01-28 17:50:00,
2013-01-28 14:00:00,82.6,70.1,30.06,East,81,12.0,12.0,66,0.00,,,0.08,Wunderground v.1.15,2013-01-28 18:00:00,
2013-01-28 14:10:00,83.2,70.2,30.06,East,85,11.0,12.0,65,0.00,,,0.08,Wunderground v.1.15,2013-01-28 18:10:00,
2013-01-28 14:20:00,82.2,70.1,30.06,ESE,105,12.0,12.0,67,0.00,,,0.08,Wunderground v.1.15,2013-01-28 18:20:00,
2013-01-28 14:30:00,80.5,69.0,30.06,East,82,11.0,11.0,68,0.00,,,0.08,Wunderground v.1.15,2013-01-28 18:30:00,
2013-01-28 14:40:00,80.5,69.4,30.05,East,82,10.0,14.0,69,0.00,,,0.08,Wunderground v.1.15,2013-01-28 18:40:00,
2013-01-28 14:50:00,80.7,68.7,30.04,East,88,9.0,9.0,67,0.00,,,0.08,Wunderground v.1.15,2013-01-28 18:50:00,
2013-01-28 15:00:00,80.5,69.4,30.04,ENE,74,10.0,12.0,69,0.00,,,0.08,Wunderground v.1.15,2013-01-28 19:00:00,
2013-01-28 15:10:00,80.1,69.8,30.04,ENE,70,11.0,11.0,71,0.00,,,0.08,Wunderground v.1.15,2013-01-28 19:10:00,
2013-01-28 15:20:00,79.4,69.6,30.04,ENE,65,11.0,11.0,72,0.00,,,0.08,Wunderground v.1.15,2013-01-28 19:20:00,
2013-01-28 15:30:00,79.2,68.6,30.04,ENE,61,11.0,11.0,70,0.00,,,0.08,Wunderground v.1.15,2013-01-28 19:30:00,
2013-01-28 15:40:00,81.1,69.5,30.04,East,81,10.0,11.0,68,0.00,,,0.08,Wunderground v.1.15,2013-01-28 19:40:00,
2013-01-28 15:50:00,79.8,69.6,30.04,NE,53,10.0,11.0,71,0.00,,,0.08,Wunderground v.1.15,2013-01-28 19:50:00,
2013-01-28 16:00:00,80.1,69.0,30.04,ENE,74,10.0,10.0,69,0.00,,,0.08,Wunderground v.1.15,2013-01-28 20:00:00,
2013-01-28 16:10:00,80.5,69.0,30.03,East,79,12.0,12.0,68,0.00,,,0.08,Wunderground v.1.15,2013-01-28 20:10:00,
2013-01-28 16:20:00,79.9,68.4,30.04,East,81,9.0,15.0,68,0.00,,,0.08,Wunderground v.1.15,2013-01-28 20:20:00,
2013-01-28 16:30:00,79.2,68.6,30.04,ENE,59,9.0,9.0,70,0.00,,,0.08,Wunderground v.1.15,2013-01-28 20:30:00,
2013-01-28 16:40:00,78.5,68.3,30.04,NE,55,9.0,9.0,71,0.00,,,0.08,Wunderground v.1.15,2013-01-28 20:40:00,
2013-01-28 16:50:00,79.0,68.8,30.04,ENE,78,10.0,10.0,71,0.00,,,0.08,Wunderground v.1.15,2013-01-28 20:50:00,
2013-01-28 17:00:00,79.4,68.3,30.04,ENE,76,9.0,11.0,69,0.00,,,0.08,Wunderground v.1.15,2013-01-28 21:00:00,
2013-01-28 17:10:00,79.4,68.8,30.04,ENE,59,9.0,9.0,70,0.00,,,0.08,Wunderground v.1.15,2013-01-28 21:10:00,
2013-01-28 17:20:00,78.8,68.6,30.05,NE,53,10.0,12.0,71,0.00,,,0.08,Wunderground v.1.15,2013-01-28 21:20:00,
2013-01-28 17:30:00,77.7,68.0,30.05,NE,50,9.0,12.0,72,0.00,,,0.08,Wunderground v.1.15,2013-01-28 21:30:00,
2013-01-28 17:40:00,77.0,68.1,30.05,NE,47,7.0,7.0,74,0.00,,,0.08,Wunderground v.1.15,2013-01-28 21:40:00,
2013-01-28 17:50:00,76.7,67.8,30.05,NE,42,6.0,6.0,74,0.00,,,0.08,Wunderground v.1.15,2013-01-28 21:50:00,
2013-01-28 18:00:00,76.3,67.8,30.05,East,84,7.0,8.0,75,0.00,,,0.08,Wunderground v.1.15,2013-01-28 22:00:00,
2013-01-28 18:10:00,76.3,67.8,30.06,NE,47,5.0,5.0,75,0.00,,,0.08,Wunderground v.1.15,2013-01-28 22:10:00,
2013-01-28 18:20:00,76.0,67.9,30.06,NE,39,5.0,5.0,76,0.00,,,0.08,Wunderground v.1.15,2013-01-28 22:20:00,
2013-01-28 18:30:00,75.8,68.1,30.06,NNE,24,6.0,9.0,77,0.00,,,0.08,Wunderground v.1.15,2013-01-28 22:30:00,
2013-01-28 18:40:00,75.6,68.3,30.06,NE,37,6.0,6.0,78,0.00,,,0.08,Wunderground v.1.15,2013-01-28 22:40:00,
2013-01-28 18:50:00,75.4,68.1,30.06,ENE,67,5.0,6.0,78,0.00,,,0.08,Wunderground v.1.15,2013-01-28 22:50:00,
2013-01-28 19:00:00,75.3,68.0,30.06,NE,36,6.0,7.0,78,0.00,,,0.08,Wunderground v.1.15,2013-01-28 23:00:00,
2013-01-28 19:10:00,75.3,68.7,30.06,NE,50,6.0,9.0,80,0.00,,,0.08,Wunderground v.1.15,2013-01-28 23:10:00,
2013-01-28 19:20:00,75.3,68.7,30.06,NE,49,7.0,7.0,80,0.00,,,0.08,Wunderground v.1.15,2013-01-28 23:20:00,
2013-01-28 19:30:00,75.3,68.7,30.06,ENE,68,7.0,7.0,80,0.00,,,0.08,Wunderground v.1.15,2013-01-28 23:30:00,
2013-01-28 19:40:00,75.3,68.3,30.07,NE,49,7.0,7.0,79,0.00,,,0.08,Wunderground v.1.15,2013-01-28 23:40:00,
2013-01-28 19:50:00,75.3,68.3,30.07,NE,45,6.0,8.0,79,0.00,,,0.08,Wunderground v.1.15,2013-01-28 23:50:00,
2013-01-28 20:00:00,75.4,68.4,30.07,NE,50,6.0,6.0,79,0.00,,,0.08,Wunderground v.1.15,2013-01-29 00:00:00,